createdAt,value
2018-07-19T00:00:25.887Z,31.65
2018-07-19T00:02:52.928Z,31.02
2018-07-19T00:05:20.388Z,33.08
2018-07-19T00:07:47.437Z,29.80
2018-07-19T00:10:14.493Z,27.98
2018-07-19T00:12:41.534Z,23.80
2018-07-19T00:15:08.581Z,24.67
2018-07-19T00:17:35.635Z,26.05
2018-07-19T00:20:02.679Z,33.92
2018-07-19T00:22:29.727Z,31.85
2018-07-19T00:24:56.878Z,28.20
2018-07-19T00:27:24.132Z,30.17
2018-07-19T00:29:51.085Z,33.33
2018-07-19T00:32:18.079Z,38.85
2018-07-19T00:34:45.485Z,36.10
2018-07-19T00:37:12.536Z,38.10
2018-07-19T00:39:39.580Z,34.70
2018-07-19T00:42:06.629Z,33.92
2018-07-19T00:44:33.682Z,36.50
2018-07-19T00:47:00.725Z,33.05
2018-07-19T00:49:27.776Z,34.10
2018-07-19T00:51:54.828Z,29.92
2018-07-19T00:54:21.878Z,33.05
2018-07-19T00:56:48.921Z,41.13
2018-07-19T00:59:15.969Z,36.28
2018-07-19T01:01:43.023Z,38.97
2018-07-19T01:04:10.066Z,35.00
2018-07-19T01:06:37.115Z,38.90
2018-07-19T01:09:04.169Z,37.03
2018-07-19T01:11:31.212Z,38.03
2018-07-19T01:13:58.260Z,38.08
2018-07-19T01:16:25.315Z,38.67
2018-07-19T01:18:52.359Z,41.08
2018-07-19T01:21:19.357Z,43.55
2018-07-19T01:23:46.352Z,37.20
2018-07-19T01:26:13.400Z,37.50
2018-07-19T01:28:41.166Z,39.20
2018-07-19T01:31:08.222Z,34.03
2018-07-19T01:33:35.264Z,39.80
2018-07-19T01:36:02.312Z,32.63
2018-07-19T01:38:29.259Z,32.20
2018-07-19T01:40:57.023Z,32.17
2018-07-19T01:43:24.074Z,29.45
2018-07-19T01:45:51.224Z,30.08
2018-07-19T01:48:18.277Z,29.55
2018-07-19T01:50:45.321Z,27.00
2018-07-19T01:53:12.309Z,27.27
2018-07-19T01:55:39.316Z,24.95
2018-07-19T01:58:06.467Z,24.92
2018-07-19T02:00:33.515Z,23.15
2018-07-19T02:03:00.570Z,22.23
2018-07-19T02:05:27.614Z,20.42
2018-07-19T02:07:54.666Z,19.52
2018-07-19T02:10:21.716Z,20.33
2018-07-19T02:12:49.580Z,17.55
2018-07-19T02:15:16.634Z,15.85
2018-07-19T02:17:43.679Z,15.68
2018-07-19T02:20:11.448Z,14.57
2018-07-19T02:22:38.490Z,13.77
2018-07-19T02:25:05.546Z,11.95
2018-07-19T02:27:33.200Z,11.38
2018-07-19T02:30:00.249Z,12.90
2018-07-19T02:32:27.304Z,10.23
2018-07-19T02:34:54.551Z,10.65
2018-07-19T02:37:22.318Z,9.85
2018-07-19T02:39:49.371Z,9.68
2018-07-19T02:42:16.417Z,9.70
2018-07-19T02:44:43.463Z,11.98
2018-07-19T02:47:10.516Z,10.50
2018-07-19T02:49:37.560Z,10.77
2018-07-19T02:52:04.609Z,12.00
2018-07-19T02:54:35.656Z,12.05
2018-07-19T02:57:02.702Z,10.80
2018-07-19T02:59:29.748Z,10.63
2018-07-19T03:01:56.801Z,10.32
2018-07-19T03:04:23.791Z,9.82
2018-07-19T03:06:50.797Z,9.48
2018-07-19T03:09:17.840Z,9.48
2018-07-19T03:11:44.826Z,9.30
2018-07-19T03:14:11.835Z,10.20
2018-07-19T03:16:38.882Z,9.27
2018-07-19T03:19:05.936Z,11.32
2018-07-19T03:21:32.989Z,8.57
2018-07-19T03:24:00.029Z,9.55
2018-07-19T03:26:27.083Z,8.20
2018-07-19T03:28:54.127Z,8.65
2018-07-19T03:31:21.176Z,9.38
2018-07-19T03:33:48.233Z,7.97
2018-07-19T03:36:15.273Z,8.20
2018-07-19T03:38:42.320Z,9.20
2018-07-19T03:41:09.375Z,9.05
2018-07-19T03:43:36.418Z,7.85
2018-07-19T03:46:03.467Z,7.90
2018-07-19T03:48:30.447Z,8.65
2018-07-19T03:50:57.466Z,8.32
2018-07-19T03:53:24.515Z,8.35
2018-07-19T03:55:51.559Z,7.82
2018-07-19T03:58:18.607Z,8.20
2018-07-19T04:00:45.624Z,8.40
2018-07-19T04:03:12.603Z,7.72
2018-07-19T04:05:39.656Z,8.30
2018-07-19T04:08:06.700Z,8.50
2018-07-19T04:10:33.751Z,8.13
2018-07-19T04:13:00.802Z,8.20
2018-07-19T04:15:27.744Z,10.15
2018-07-19T04:17:54.797Z,7.82
2018-07-19T04:20:21.842Z,7.57
2018-07-19T04:22:48.889Z,7.32
2018-07-19T04:25:15.944Z,8.45
2018-07-19T04:27:43.707Z,9.50
2018-07-19T04:30:10.751Z,8.18
2018-07-19T04:32:37.800Z,8.77
2018-07-19T04:35:04.785Z,9.90
2018-07-19T04:37:31.796Z,8.07
2018-07-19T04:39:58.786Z,7.80
2018-07-19T04:42:25.832Z,9.23
2018-07-19T04:44:52.844Z,8.10
2018-07-19T04:47:19.887Z,7.82
2018-07-19T04:49:46.935Z,11.12
2018-07-19T04:52:13.988Z,8.10
2018-07-19T04:54:41.044Z,10.52
2018-07-19T04:57:08.081Z,8.40
2018-07-19T04:59:35.232Z,9.55
2018-07-19T05:02:02.444Z,7.85
2018-07-19T05:04:29.439Z,11.27
2018-07-19T05:06:56.486Z,8.23
2018-07-19T05:09:23.533Z,8.43
2018-07-19T05:11:50.585Z,8.48
2018-07-19T05:14:17.631Z,8.73
2018-07-19T05:16:44.580Z,11.93
2018-07-19T05:19:11.621Z,9.55
2018-07-19T05:21:40.939Z,8.77
2018-07-19T05:24:07.972Z,9.27
2018-07-19T05:26:35.025Z,9.23
2018-07-19T05:29:02.069Z,9.68
2018-07-19T05:31:29.117Z,9.27
2018-07-19T05:33:56.171Z,10.23
2018-07-19T05:36:23.159Z,10.60
2018-07-19T05:38:50.165Z,11.05
2018-07-19T05:41:17.211Z,9.82
2018-07-19T05:43:44.259Z,11.65
2018-07-19T05:46:11.204Z,9.38
2018-07-19T05:48:38.253Z,9.75
2018-07-19T05:51:05.308Z,11.50
2018-07-19T05:53:32.354Z,9.45
2018-07-19T05:55:59.400Z,14.75
2018-07-19T05:58:26.455Z,10.00
2018-07-19T06:00:53.703Z,10.82
2018-07-19T06:03:20.683Z,8.30
2018-07-19T06:05:47.695Z,9.45
2018-07-19T06:08:15.153Z,8.82
2018-07-19T06:10:42.209Z,10.43
2018-07-19T06:13:09.250Z,9.93
2018-07-19T06:15:36.300Z,10.48
2018-07-19T06:18:03.392Z,9.23
2018-07-19T06:20:30.398Z,10.70
2018-07-19T06:22:57.550Z,8.07
2018-07-19T06:25:24.501Z,9.38
2018-07-19T06:27:51.850Z,10.40
2018-07-19T06:30:18.900Z,9.68
2018-07-19T06:32:45.953Z,9.25
2018-07-19T06:35:14.333Z,9.05
2018-07-19T06:37:41.317Z,13.57
2018-07-19T06:40:08.425Z,8.77
2018-07-19T06:42:35.478Z,10.15
2018-07-19T06:45:02.524Z,8.50
2018-07-19T06:47:29.570Z,8.50
2018-07-19T06:49:56.625Z,7.97
2018-07-19T06:52:23.670Z,8.77
2018-07-19T06:54:50.719Z,10.88
2018-07-19T06:57:17.771Z,8.68
2018-07-19T06:59:44.813Z,8.02
2018-07-19T07:02:11.764Z,9.20
2018-07-19T07:04:38.808Z,7.80
2018-07-19T07:07:05.856Z,8.30
2018-07-19T07:09:32.917Z,9.68
2018-07-19T07:11:59.899Z,7.78
2018-07-19T07:14:26.906Z,7.80
2018-07-19T07:16:53.894Z,8.45
2018-07-19T07:19:20.902Z,8.30
2018-07-19T07:21:47.944Z,8.85
2018-07-19T07:24:14.992Z,8.55
2018-07-19T07:26:59.864Z,7.10
2018-07-19T07:29:26.908Z,7.05
2018-07-19T07:31:53.956Z,7.68
2018-07-19T07:34:21.010Z,7.60
2018-07-19T07:36:48.564Z,7.00
2018-07-19T07:39:15.619Z,7.18
2018-07-19T07:41:42.662Z,7.43
2018-07-19T07:44:10.170Z,12.18
2018-07-19T07:46:37.170Z,21.15
2018-07-19T07:49:04.159Z,12.35
2018-07-19T07:51:31.682Z,7.40
2018-07-19T07:53:58.725Z,7.85
2018-07-19T07:56:25.775Z,8.68
2018-07-19T08:01:28.786Z,14.95
2018-07-19T08:03:56.347Z,9.18
2018-07-19T08:06:23.392Z,7.18
2018-07-19T08:08:50.475Z,14.85
2018-07-19T08:11:18.969Z,9.68
2018-07-19T08:13:45.908Z,13.55
2018-07-19T08:16:12.925Z,10.60
2018-07-19T08:18:40.065Z,11.52
2018-07-19T08:21:07.113Z,8.95
2018-07-19T08:23:34.171Z,8.90
2018-07-19T08:26:01.530Z,7.95
2018-07-19T08:28:28.566Z,10.60
2018-07-19T08:30:55.514Z,14.48
2018-07-19T08:33:22.562Z,9.00
2018-07-19T08:35:49.667Z,7.43
2018-07-19T08:38:16.660Z,11.57
2018-07-19T08:40:43.707Z,13.23
2018-07-19T08:43:10.764Z,9.57
2018-07-19T08:45:37.804Z,8.88
2018-07-19T08:48:04.853Z,7.87
2018-07-19T08:50:32.005Z,8.77
2018-07-19T08:52:59.156Z,7.35
2018-07-19T08:55:26.209Z,10.18
2018-07-19T08:57:53.254Z,8.32
2018-07-19T09:00:20.237Z,7.30
2018-07-19T09:02:47.247Z,9.30
2018-07-19T09:05:14.199Z,8.77
2018-07-19T09:07:41.241Z,7.32
2018-07-19T09:10:08.291Z,7.12
2018-07-19T09:12:35.442Z,7.72
2018-07-19T09:15:03.616Z,8.13
2018-07-19T09:20:16.197Z,6.93
2018-07-19T09:22:43.197Z,8.90
2018-07-19T09:25:11.884Z,7.40
2018-07-19T09:27:39.033Z,6.25
2018-07-19T09:30:06.182Z,9.30
2018-07-19T09:32:34.113Z,8.73
2018-07-19T09:35:01.100Z,6.85
2018-07-19T09:37:28.079Z,9.65
2018-07-19T09:39:56.054Z,6.90
2018-07-19T09:42:23.066Z,7.28
2018-07-19T09:44:50.119Z,8.20
2018-07-19T09:47:17.470Z,10.43
2018-07-19T09:49:44.518Z,12.30
2018-07-19T09:52:11.570Z,7.97
2018-07-19T09:54:46.739Z,10.27
2018-07-19T09:57:13.960Z,6.93
2018-07-19T09:59:41.109Z,12.90
2018-07-19T10:02:08.161Z,7.00
2018-07-19T10:04:35.206Z,7.37
2018-07-19T10:07:02.255Z,12.88
2018-07-19T10:09:29.307Z,15.05
2018-07-19T10:11:56.475Z,7.78
2018-07-19T10:14:23.610Z,7.95
2018-07-19T10:16:50.653Z,7.32
2018-07-19T10:19:17.605Z,6.53
2018-07-19T10:21:44.651Z,6.20
2018-07-19T10:24:12.873Z,6.35
2018-07-19T10:26:40.220Z,6.82
2018-07-19T10:29:07.226Z,11.40
2018-07-19T10:31:34.281Z,5.30
2018-07-19T10:34:03.214Z,6.68
2018-07-19T10:36:31.043Z,5.70
2018-07-19T10:38:58.904Z,5.55
2018-07-19T10:41:25.956Z,6.43
2018-07-19T10:43:52.947Z,5.28
2018-07-19T10:46:19.961Z,5.10
2018-07-19T10:48:46.995Z,5.40
2018-07-19T10:51:14.044Z,7.75
2018-07-19T10:53:42.530Z,5.75
2018-07-19T10:56:09.819Z,6.20
2018-07-19T10:58:36.830Z,5.70
2018-07-19T11:01:03.879Z,5.78
2018-07-19T11:03:31.852Z,5.55
2018-07-19T11:05:59.003Z,5.87
2018-07-19T11:08:25.942Z,5.10
2018-07-19T11:10:57.914Z,5.12
2018-07-19T11:13:25.465Z,6.32
2018-07-19T11:15:53.947Z,5.05
2018-07-19T11:18:21.207Z,5.47
2018-07-19T11:20:48.250Z,5.10
2018-07-19T11:23:18.064Z,6.85
2018-07-19T11:25:46.588Z,4.57
2018-07-19T11:28:14.207Z,6.87
2018-07-19T11:30:41.262Z,6.30
2018-07-19T11:33:08.203Z,4.80
2018-07-19T11:35:35.258Z,4.85
2018-07-19T11:38:02.197Z,5.87
2018-07-19T11:40:30.620Z,6.10
2018-07-19T11:42:57.631Z,4.60
2018-07-19T11:45:24.573Z,4.90
2018-07-19T11:47:51.933Z,6.25
2018-07-19T11:50:18.976Z,5.35
2018-07-19T11:52:46.024Z,5.20
2018-07-19T11:55:13.109Z,4.05
2018-07-19T11:57:40.324Z,4.72
2018-07-19T12:00:07.415Z,4.50
2018-07-19T12:02:34.440Z,4.70
2018-07-19T12:05:01.471Z,4.68
2018-07-19T12:07:28.418Z,4.60
2018-07-19T12:09:55.467Z,5.43
2018-07-19T12:12:22.411Z,7.75
2018-07-19T12:14:49.564Z,4.72
2018-07-19T12:17:16.611Z,4.53
2018-07-19T12:19:43.763Z,4.82
2018-07-19T12:22:10.911Z,8.38
2018-07-19T12:24:37.857Z,6.15
2018-07-19T12:27:04.809Z,5.30
2018-07-19T12:29:31.798Z,6.75
2018-07-19T12:31:58.832Z,4.82
2018-07-19T12:34:25.847Z,8.55
2018-07-19T12:36:52.906Z,5.10
2018-07-19T12:39:19.948Z,5.65
2018-07-19T12:41:46.888Z,5.68
2018-07-19T12:44:13.943Z,5.12
2018-07-19T12:46:40.986Z,6.60
2018-07-19T12:49:08.034Z,11.60
2018-07-19T12:51:35.394Z,4.00
2018-07-19T12:54:02.438Z,4.50
2018-07-19T12:56:29.390Z,4.32
2018-07-19T12:58:56.331Z,6.03
2018-07-19T13:01:23.480Z,6.30
2018-07-19T13:03:50.577Z,9.23
2018-07-19T13:06:17.578Z,4.97
2018-07-19T13:08:44.462Z,4.93
2018-07-19T13:11:14.233Z,4.20
2018-07-19T13:13:41.692Z,4.05
2018-07-19T13:16:08.981Z,4.97
2018-07-19T13:18:35.898Z,4.53
2018-07-19T13:21:02.939Z,4.70
2018-07-19T13:23:30.027Z,6.85
2018-07-19T13:25:57.349Z,4.60
2018-07-19T13:28:24.534Z,5.35
2018-07-19T13:30:51.659Z,4.57
2018-07-19T13:33:18.692Z,5.68
2018-07-19T13:35:45.950Z,4.97
2018-07-19T13:38:13.201Z,4.97
2018-07-19T13:40:40.254Z,4.95
2018-07-19T13:43:07.296Z,4.72
2018-07-19T13:45:34.346Z,5.82
2018-07-19T13:48:01.399Z,5.43
2018-07-19T13:50:28.552Z,5.72
2018-07-19T13:53:01.739Z,7.03
2018-07-19T13:55:28.890Z,5.07
2018-07-19T13:57:55.945Z,7.65
2018-07-19T14:00:22.994Z,5.00
2018-07-19T14:02:50.073Z,6.65
2018-07-19T14:05:17.080Z,5.00
2018-07-19T14:07:44.137Z,5.20
2018-07-19T14:10:11.178Z,5.18
2018-07-19T14:12:38.225Z,4.80
2018-07-19T14:15:05.174Z,6.32
2018-07-19T14:17:32.220Z,5.47
2018-07-19T14:19:59.167Z,4.78
2018-07-19T14:22:26.318Z,5.35
2018-07-19T14:24:53.365Z,6.95
2018-07-19T14:27:20.311Z,4.90
2018-07-19T14:29:47.363Z,5.93
2018-07-19T14:32:14.611Z,4.70
2018-07-19T14:34:41.662Z,4.35
2018-07-19T14:37:08.716Z,5.40
2018-07-19T14:39:36.066Z,6.55
2018-07-19T14:42:03.168Z,4.90
2018-07-19T14:44:30.166Z,7.70
2018-07-19T14:46:57.416Z,5.80
2018-07-19T14:49:24.613Z,4.95
2018-07-19T14:51:52.473Z,5.12
2018-07-19T14:54:20.306Z,7.78
2018-07-19T14:56:47.289Z,4.87
2018-07-19T14:59:14.500Z,4.60
2018-07-19T15:01:41.552Z,4.70
2018-07-19T15:04:08.602Z,5.00
2018-07-19T15:06:35.648Z,5.85
2018-07-19T15:09:02.694Z,5.10
2018-07-19T15:11:29.639Z,4.87
2018-07-19T15:13:56.691Z,5.90
2018-07-19T15:16:23.742Z,4.55
2018-07-19T15:18:50.684Z,5.05
2018-07-19T15:21:17.676Z,4.55
2018-07-19T15:23:44.781Z,4.90
2018-07-19T15:26:11.730Z,6.12
2018-07-19T15:28:38.674Z,6.45
2018-07-19T15:31:05.616Z,5.12
2018-07-19T15:33:32.665Z,4.97
2018-07-19T15:35:59.722Z,5.28
2018-07-19T15:38:27.071Z,5.53
2018-07-19T15:40:54.221Z,5.00
2018-07-19T15:43:21.372Z,5.53
2018-07-19T15:45:48.352Z,6.50
2018-07-19T15:48:15.474Z,5.07
2018-07-19T15:50:44.268Z,6.35
2018-07-19T15:53:11.205Z,9.38
2018-07-19T15:55:38.462Z,4.93
2018-07-19T15:58:05.506Z,4.95
2018-07-19T16:00:32.553Z,9.57
2018-07-19T16:02:59.706Z,6.87
2018-07-19T16:05:26.649Z,7.32
2018-07-19T16:07:53.601Z,8.48
2018-07-19T16:10:20.646Z,5.50
2018-07-19T16:12:47.595Z,5.43
2018-07-19T16:15:15.602Z,4.68
2018-07-19T16:17:42.556Z,5.18
2018-07-19T16:20:09.558Z,4.60
2018-07-19T16:22:37.324Z,6.47
2018-07-19T16:25:04.487Z,7.03
2018-07-19T16:27:31.527Z,6.22
2018-07-19T16:29:59.123Z,6.72
2018-07-19T16:32:26.159Z,5.55
2018-07-19T16:34:53.381Z,6.40
2018-07-19T16:37:20.329Z,5.35
2018-07-19T16:39:47.479Z,6.18
2018-07-19T16:42:14.532Z,6.00
2018-07-19T16:44:41.893Z,6.90
2018-07-19T16:47:08.932Z,5.70
2018-07-19T16:49:35.983Z,5.75
2018-07-19T16:52:03.341Z,5.03
2018-07-19T16:54:30.493Z,6.53
2018-07-19T16:56:57.643Z,5.60
2018-07-19T16:59:25.410Z,5.10
2018-07-19T17:01:52.869Z,6.75
2018-07-19T17:04:20.016Z,5.43
2018-07-19T17:06:47.074Z,5.93
2018-07-19T17:09:14.109Z,5.30
2018-07-19T17:11:41.362Z,5.95
2018-07-19T17:14:09.433Z,5.00
2018-07-19T17:16:36.482Z,6.43
2018-07-19T17:19:03.683Z,6.65
2018-07-19T17:21:32.573Z,6.97
2018-07-19T17:23:59.680Z,8.13
2018-07-19T17:26:26.724Z,6.05
2018-07-19T17:28:53.830Z,8.45
2018-07-19T17:31:21.025Z,6.20
2018-07-19T17:33:48.073Z,7.28
2018-07-19T17:36:15.128Z,9.65
2018-07-19T17:38:42.282Z,9.63
2018-07-19T17:41:09.429Z,8.55
2018-07-19T17:43:36.475Z,7.60
2018-07-19T17:46:03.498Z,7.68
2018-07-19T17:48:30.405Z,5.87
2018-07-19T17:50:57.514Z,7.50
2018-07-19T17:53:24.587Z,6.30
2018-07-19T17:55:51.717Z,6.90
2018-07-19T17:58:18.704Z,5.80
2018-07-19T18:00:45.716Z,6.18
2018-07-19T18:03:12.835Z,6.60
2018-07-19T18:05:39.805Z,6.07
2018-07-19T18:08:06.956Z,5.82
2018-07-19T18:10:34.107Z,6.93
2018-07-19T18:13:01.259Z,12.57
2018-07-19T18:15:28.511Z,8.57
2018-07-19T18:17:55.560Z,7.70
2018-07-19T18:20:22.643Z,9.95
2018-07-19T18:22:49.554Z,8.48
2018-07-19T18:25:16.609Z,12.02
2018-07-19T18:27:43.758Z,13.70
2018-07-19T18:30:10.911Z,20.98
2018-07-19T18:32:37.955Z,12.18
2018-07-19T18:35:05.104Z,21.83
2018-07-19T18:37:32.152Z,20.12
2018-07-19T18:39:59.304Z,11.55
2018-07-19T18:42:27.376Z,8.07
2018-07-19T18:44:54.526Z,12.13
2018-07-19T18:47:21.583Z,8.05
2018-07-19T18:49:48.625Z,10.65
2018-07-19T18:52:15.672Z,9.98
2018-07-19T18:54:42.726Z,8.70
2018-07-19T18:57:09.772Z,8.32
2018-07-19T18:59:36.826Z,8.07
2018-07-19T19:02:03.975Z,9.48
2018-07-19T19:04:31.119Z,12.60
2018-07-19T19:06:58.271Z,11.05
2018-07-19T19:09:25.332Z,11.43
2018-07-19T19:11:53.238Z,10.45
2018-07-19T19:14:21.361Z,11.65
2018-07-19T19:16:48.409Z,10.82
2018-07-19T19:19:15.464Z,11.38
2018-07-19T19:21:44.099Z,11.02
2018-07-19T19:24:11.915Z,10.68
2018-07-19T19:26:39.269Z,11.32
2018-07-19T19:29:06.315Z,11.27
2018-07-19T19:31:33.369Z,11.80
2018-07-19T19:34:01.335Z,11.88
2018-07-19T19:36:28.386Z,12.60
2018-07-19T19:38:55.437Z,13.15
2018-07-19T19:41:22.484Z,10.98
2018-07-19T19:43:49.635Z,12.20
2018-07-19T19:46:16.682Z,13.57
2018-07-19T19:48:43.830Z,13.68
2018-07-19T19:51:11.903Z,13.82
2018-07-19T19:53:39.155Z,13.93
2018-07-19T19:56:06.204Z,12.40
2018-07-19T19:58:33.260Z,14.68
2018-07-19T20:01:00.302Z,14.27
2018-07-19T20:03:27.453Z,12.35
2018-07-19T20:05:54.502Z,11.20
2018-07-19T20:08:21.556Z,14.35
2018-07-19T20:10:49.213Z,18.75
2018-07-19T20:13:16.364Z,13.60
2018-07-19T20:15:43.413Z,15.18
2018-07-19T20:18:10.466Z,15.23
2018-07-19T20:20:37.617Z,13.15
2018-07-19T20:23:04.675Z,12.90
2018-07-19T20:25:31.711Z,13.73
2018-07-19T20:28:02.450Z,12.57
2018-07-19T20:30:29.390Z,11.93
2018-07-19T20:32:56.376Z,14.55
2018-07-19T20:35:23.384Z,14.57
2018-07-19T20:37:50.439Z,12.35
2018-07-19T20:40:17.381Z,12.82
2018-07-19T20:42:44.434Z,13.32
2018-07-19T20:45:11.585Z,13.82
2018-07-19T20:47:38.526Z,14.00
2018-07-19T20:50:05.677Z,13.15
2018-07-19T20:52:32.828Z,16.00
2018-07-19T20:54:59.905Z,15.27
2018-07-19T20:57:27.034Z,14.80
2018-07-19T20:59:54.076Z,18.48
2018-07-19T21:02:21.227Z,16.12
2018-07-19T21:04:48.292Z,15.98
2018-07-19T21:07:15.329Z,17.55
2018-07-19T21:09:42.372Z,18.98
2018-07-19T21:12:09.422Z,15.75
2018-07-19T21:14:36.475Z,16.70
2018-07-19T21:17:03.519Z,15.98
2018-07-19T21:19:30.568Z,14.93
2018-07-19T21:21:57.624Z,13.77
2018-07-19T21:24:24.666Z,18.55
2018-07-19T21:26:51.713Z,22.13
2018-07-19T21:29:18.967Z,14.80
2018-07-19T21:31:46.015Z,17.77
2018-07-19T21:34:13.271Z,20.65
2018-07-19T21:36:40.317Z,18.42
2018-07-19T21:39:07.370Z,20.88
2018-07-19T21:41:34.829Z,19.45
2018-07-19T21:44:01.981Z,20.33
2018-07-19T21:46:29.746Z,22.55
2018-07-19T21:48:57.916Z,21.40
2018-07-19T21:51:24.905Z,18.35
2018-07-19T21:53:51.911Z,22.30
2018-07-19T21:56:20.029Z,26.48
2018-07-19T21:58:47.036Z,24.08
2018-07-19T22:01:14.082Z,22.62
2018-07-19T22:03:41.744Z,22.20
2018-07-19T22:06:08.999Z,26.23
2018-07-19T22:08:36.046Z,24.90
2018-07-19T22:11:03.100Z,24.90
2018-07-19T22:13:30.148Z,26.02
2018-07-19T22:15:57.094Z,24.70
2018-07-19T22:18:24.137Z,24.02
2018-07-19T22:20:51.186Z,26.08
2018-07-19T22:23:18.240Z,25.58
2018-07-19T22:25:45.284Z,24.42
2018-07-19T22:28:12.235Z,24.87
2018-07-19T22:30:39.282Z,24.33
2018-07-19T22:33:06.945Z,25.23
2018-07-19T22:35:34.611Z,23.80
2018-07-19T22:38:02.268Z,24.33
2018-07-19T22:40:29.318Z,24.35
2018-07-19T22:42:56.266Z,24.35
2018-07-19T22:45:23.288Z,27.17
2018-07-19T22:47:50.334Z,24.75
2018-07-19T22:50:17.386Z,23.58
2018-07-19T22:52:44.440Z,24.02
2018-07-19T22:55:11.489Z,23.20
2018-07-19T22:57:38.535Z,27.95
2018-07-19T23:00:05.577Z,23.55
2018-07-19T23:02:32.624Z,24.98
2018-07-19T23:04:59.776Z,25.40
2018-07-19T23:07:26.740Z,24.25
2018-07-19T23:09:53.873Z,25.10
2018-07-19T23:12:20.921Z,23.48
2018-07-19T23:14:47.975Z,25.75
2018-07-19T23:17:14.917Z,22.60
2018-07-19T23:19:41.969Z,22.37
2018-07-19T23:22:09.013Z,25.25
2018-07-19T23:24:36.062Z,22.30
2018-07-19T23:27:03.134Z,23.50
2018-07-19T23:29:30.266Z,25.48
2018-07-19T23:31:57.310Z,28.10
2018-07-19T23:34:24.460Z,28.25
2018-07-19T23:36:52.640Z,25.37
2018-07-19T23:39:19.685Z,31.27
2018-07-19T23:41:46.734Z,25.48
2018-07-19T23:44:13.787Z,24.23
2018-07-19T23:46:40.727Z,25.80
2018-07-19T23:49:07.789Z,23.55
2018-07-19T23:51:34.825Z,26.92
2018-07-19T23:54:01.776Z,28.38
2018-07-19T23:56:28.820Z,24.27
2018-07-19T23:58:55.868Z,24.80
